Time;durP1;ratioP1;P1;durP2;ratioP2;P2;SDS_P1;SDS_P2;PMS_P1;PMS_P2;Temp;Humidity;BMP_temperature;BMP_pressure;BME280_temperature;BME280_humidity;BME280_pressure;Samples;Min_cycle;Max_cycle;Signal;HPM_P1;HPM_P2
2022/06/12 00:01:26;;;;;;;1.00;1.00;;;;;;;;;;5052325;28;20477;-83
2022/06/12 00:03:53;;;;;;;1.00;0.87;;;;;;;;;;5051334;28;20525;-83
2022/06/12 00:06:20;;;;;;;1.43;1.30;;;24.70;56.20;;;;;;5052579;28;20876;-83
2022/06/12 00:08:46;;;;;;;0.80;0.80;;;;;;;;;;5052305;28;20434;-82
2022/06/12 00:11:15;;;;;;;1.10;1.00;;;24.50;56.40;;;;;;5052645;28;20977;-83
2022/06/12 00:13:49;;;;;;;1.33;1.13;;;24.50;56.10;;;;;;5052087;28;20426;-83
2022/06/12 00:16:15;;;;;;;1.10;1.00;;;;;;;;;;5034575;28;20965;-83
2022/06/12 00:18:41;;;;;;;1.77;1.03;;;24.40;56.10;;;;;;5052195;28;20796;-83
2022/06/12 00:21:11;;;;;;;0.97;0.97;;;25.00;56.20;;;;;;5052539;28;20479;-82
2022/06/12 00:23:50;;;;;;;3.17;1.10;;;24.50;57.70;;;;;;5034401;28;20463;-83
2022/06/12 00:26:29;;;;;;;1.13;1.00;;;24.60;63.30;;;;;;5052411;28;20467;-82
2022/06/12 00:29:01;;;;;;;1.40;1.30;;;24.60;55.00;;;;;;5051538;28;20482;-83
2022/06/12 00:31:29;;;;;;;1.03;1.03;;;24.60;56.10;;;;;;5052231;28;20470;-83
2022/06/12 00:33:54;;;;;;;1.10;1.00;;;24.90;68.20;;;;;;5034461;28;20431;-82
2022/06/12 00:36:20;;;;;;;1.13;1.13;;;;;;;;;;5052298;28;20552;-83
2022/06/12 00:38:47;;;;;;;3.70;1.30;;;;;;;;;;5051729;28;20557;-83
2022/06/12 00:41:13;;;;;;;1.20;1.10;;;;;;;;;;5051562;28;20433;-83
2022/06/12 00:43:39;;;;;;;1.20;1.20;;;;;;;;;;5051862;28;20446;-82
2022/06/12 00:46:06;;;;;;;1.23;1.23;;;24.60;56.40;;;;;;5052550;28;20431;-82
2022/06/12 00:48:35;;;;;;;1.40;1.30;;;24.70;56.30;;;;;;5051753;28;20457;-82
2022/06/12 00:51:01;;;;;;;1.07;1.07;;;;;;;;;;5051642;28;20458;-82
2022/06/12 00:53:32;;;;;;;1.27;1.03;;;24.70;56.00;;;;;;5051565;28;20431;-82
2022/06/12 00:56:13;;;;;;;1.00;0.90;;;24.60;54.90;;;;;;5052213;28;20510;-83
2022/06/12 00:58:45;;;;;;;1.10;1.10;;;24.70;82.80;;;;;;5051620;28;20442;-82
2022/06/12 01:01:18;;;;;;;1.30;1.20;;;24.70;56.00;;;;;;5051579;28;20556;-82
2022/06/12 01:06:34;;;;;;;1.50;1.13;;;;;;;;;;5051236;28;20921;-83
2022/06/12 01:09:04;;;;;;;1.00;1.00;;;24.50;56.30;;;;;;5051448;28;20411;-83
2022/06/12 01:11:30;;;;;;;1.33;1.20;;;24.60;56.30;;;;;;5050605;28;20852;-82
2022/06/12 01:13:56;;;;;;;1.50;1.37;;;;;;;;;;5051047;28;20427;-83
2022/06/12 01:16:22;;;;;;;0.97;0.87;;;;;;;;;;5051743;28;20459;-82
2022/06/12 01:18:53;;;;;;;1.20;1.10;;;24.60;56.30;;;;;;5033084;28;20772;-82
2022/06/12 01:21:55;;;;;;;1.10;1.00;;;24.60;55.00;;;;;;5051680;28;20547;-83
2022/06/12 01:24:41;;;;;;;0.73;0.73;;;24.50;63.40;;;;;;5049522;28;20495;-83
2022/06/12 01:27:34;;;;;;;2.17;1.27;;;24.40;54.90;;;;;;5051348;28;20913;-83
2022/06/12 01:30:28;;;;;;;1.10;1.10;;;24.50;56.10;;;;;;5049591;28;20453;-83
2022/06/12 01:33:18;;;;;;;0.83;0.80;;;24.60;55.10;;;;;;5051204;28;20419;-83
2022/06/12 01:35:54;;;;;;;1.40;1.30;;;24.50;55.10;;;;;;5033115;28;20423;-83
2022/06/12 01:38:26;;;;;;;1.07;1.07;;;24.60;56.70;;;;;;5051133;28;20867;-82
2022/06/12 01:41:18;;;;;;;1.30;1.30;;;24.60;55.20;;;;;;5049698;28;20478;-82
2022/06/12 01:43:56;;;;;;;1.17;0.83;;;24.60;55.10;;;;;;5045534;28;20420;-82
2022/06/12 01:47:00;;;;;;;1.77;1.10;;;24.60;55.10;;;;;;5050197;28;20442;-82
2022/06/12 01:49:53;;;;;;;5.97;1.37;;;24.60;55.10;;;;;;5016470;28;20926;-82
2022/06/12 01:52:28;;;;;;;1.13;1.13;;;24.70;83.10;;;;;;5043417;28;20466;-82
2022/06/12 01:55:15;;;;;;;1.23;1.10;;;24.20;54.90;;;;;;5050636;28;20422;-82
2022/06/12 01:58:07;;;;;;;1.27;1.00;;;24.50;67.30;;;;;;5036792;28;20910;-83
2022/06/12 02:00:33;;;;;;;1.03;0.87;;;24.50;55.80;;;;;;5050592;28;20455;-82
2022/06/12 02:03:25;;;;;;;1.23;1.13;;;24.90;60.20;;;;;;5050523;28;20446;-82
2022/06/12 02:06:09;;;;;;;2.40;1.30;;;24.60;55.30;;;;;;5050726;28;20184;-82
2022/06/12 02:08:51;;;;;;;1.00;0.90;;;24.60;56.50;;;;;;5032231;28;20449;-82
2022/06/12 02:14:25;;;;;;;1.53;0.97;;;24.60;57.00;;;;;;5049481;28;20856;-83
2022/06/12 02:16:56;;;;;;;1.03;1.03;;;24.60;56.60;;;;;;5050599;28;20841;-82
2022/06/12 02:19:43;;;;;;;1.03;1.03;;;24.60;55.30;;;;;;5050214;28;20513;-82
2022/06/12 02:22:15;;;;;;;0.87;0.87;;;24.60;56.60;;;;;;5050274;28;20852;-83
2022/06/12 02:24:58;;;;;;;1.00;1.00;;;24.50;55.60;;;;;;5050867;28;20798;-83
2022/06/12 02:27:33;;;;;;;0.90;0.90;;;24.70;83.70;;;;;;5050794;28;20779;-82
2022/06/12 02:30:05;;;;;;;0.87;0.87;;;24.50;56.60;;;;;;5050445;28;20886;-83
2022/06/12 02:32:36;;;;;;;1.10;1.00;;;24.50;56.60;;;;;;5049931;28;20454;-82
2022/06/12 02:35:10;;;;;;;1.33;1.00;;;24.50;56.80;;;;;;5050237;28;20426;-82
2022/06/12 02:37:40;;;;;;;0.80;0.80;;;24.50;56.60;;;;;;5035733;28;20446;-83
2022/06/12 02:40:34;;;;;;;3.50;1.70;;;24.60;56.60;;;;;;5050555;28;20926;-82
2022/06/12 02:43:05;;;;;;;1.07;1.07;;;24.00;56.50;;;;;;5049655;28;20477;-82
2022/06/12 02:45:40;;;;;;;1.30;1.20;;;25.00;55.30;;;;;;5047835;28;20465;-82
2022/06/12 02:48:07;;;;;;;0.97;0.97;;;24.50;57.00;;;;;;5050553;28;20481;-82
2022/06/12 02:50:44;;;;;;;1.03;1.00;;;24.80;56.80;;;;;;5049742;28;20501;-83
2022/06/12 02:53:10;;;;;;;1.20;1.20;;;;;;;;;;5054593;28;20441;-83
2022/06/12 02:55:47;;;;;;;1.43;1.33;;;24.50;54.90;;;;;;5053951;28;20847;-82
2022/06/12 02:58:50;;;;;;;1.00;0.90;;;23.90;59.80;;;;;;5054776;28;20566;-83
2022/06/12 03:01:22;;;;;;;2.70;1.73;;;24.50;56.60;;;;;;5054467;28;20549;-82
2022/06/12 03:04:00;;;;;;;1.00;1.00;;;24.70;66.50;;;;;;5054767;28;20435;-82
2022/06/12 03:06:26;;;;;;;0.73;0.73;;;24.50;56.80;;;;;;5054735;28;20490;-82
2022/06/12 03:08:56;;;;;;;1.20;1.20;;;24.40;55.70;;;;;;5054307;28;20434;-83
2022/06/12 03:11:33;;;;;;;1.13;1.03;;;24.50;54.80;;;;;;5054280;28;20553;-83
2022/06/12 03:13:59;;;;;;;1.67;1.57;;;;;;;;;;5055444;28;20571;-83
2022/06/12 03:16:28;;;;;;;1.30;1.20;;;24.60;56.70;;;;;;5056181;28;20902;-83
2022/06/12 03:18:58;;;;;;;1.20;1.20;;;24.40;54.60;;;;;;5055482;28;20517;-83
2022/06/12 03:21:43;;;;;;;2.03;1.30;;;23.80;56.10;;;;;;5055899;28;20511;-83
2022/06/12 03:24:23;;;;;;;1.00;0.90;;;24.60;69.90;;;;;;5054651;28;20432;-83
2022/06/12 03:27:08;;;;;;;1.10;1.00;;;24.50;54.60;;;;;;5054350;28;20406;-83
2022/06/12 03:29:49;;;;;;;1.67;0.90;;;24.60;71.80;;;;;;5054264;28;20449;-82
2022/06/12 03:32:15;;;;;;;1.20;1.10;;;;;;;;;;5053922;28;20493;-83
2022/06/12 03:34:59;;;;;;;1.43;1.07;;;24.50;54.40;;;;;;5053961;28;20933;-83
2022/06/12 03:38:01;;;;;;;0.80;0.80;;;24.50;54.60;;;;;;5052889;28;20445;-83
2022/06/12 03:40:36;;;;;;;1.30;1.20;;;24.50;56.30;;;;;;5053817;28;20836;-83
2022/06/12 03:43:14;;;;;;;3.43;0.93;;;24.50;54.20;;;;;;5054135;28;20446;-83
2022/06/12 03:45:42;;;;;;;1.00;1.00;;;;;;;;;;5047769;28;20437;-83
2022/06/12 03:48:08;;;;;;;2.20;1.07;;;;;;;;;;5053882;28;20422;-82
2022/06/12 03:50:49;;;;;;;3.83;1.20;;;24.60;64.00;;;;;;5052510;28;20579;-83
2022/06/12 03:53:33;;;;;;;1.10;1.00;;;24.50;54.10;;;;;;5054097;28;20427;-83
2022/06/12 03:59:23;;;;;;;1.33;1.10;;;24.70;81.70;;;;;;5049397;28;20530;-83
2022/06/12 04:01:51;;;;;;;0.80;0.80;;;24.50;56.10;;;;;;5052897;28;20446;-83
2022/06/12 04:04:19;;;;;;;0.83;0.83;;;24.90;56.20;;;;;;5034034;28;20985;-82
2022/06/12 04:06:45;;;;;;;1.00;0.90;;;;;;;;;;5054990;28;20462;-82
2022/06/12 04:09:18;;;;;;;1.20;1.20;;;25.10;54.30;;;;;;5035632;28;20558;-82
2022/06/12 04:11:49;;;;;;;0.90;0.90;;;25.00;56.00;;;;;;5052262;28;21009;-83
2022/06/12 04:14:17;;;;;;;3.87;1.20;;;24.50;56.00;;;;;;5052107;28;20521;-82
2022/06/12 04:16:47;;;;;;;1.30;1.20;;;24.20;55.70;;;;;;5053376;28;20816;-82
2022/06/12 04:19:17;;;;;;;1.20;0.90;;;24.50;55.80;;;;;;5039838;28;20972;-82
2022/06/12 04:21:54;;;;;;;0.83;0.83;;;24.50;55.90;;;;;;5053406;28;20427;-82
2022/06/12 04:24:42;;;;;;;0.97;0.97;;;24.50;54.00;;;;;;5052861;28;20505;-83
2022/06/12 04:27:41;;;;;;;0.77;0.77;;;24.40;56.50;;;;;;5051045;28;20430;-82
2022/06/12 04:30:28;;;;;;;1.10;1.07;;;24.50;54.00;;;;;;5050494;28;20933;-82
2022/06/12 04:33:24;;;;;;;6.80;1.17;;;24.50;54.00;;;;;;5052813;28;20457;-83
2022/06/12 04:35:57;;;;;;;1.10;1.00;;;24.50;55.80;;;;;;5053020;28;20429;-83
2022/06/12 04:38:24;;;;;;;0.87;0.87;;;24.50;55.40;;;;;;5052497;28;20616;-83
2022/06/12 04:40:50;;;;;;;0.90;0.80;;;;;;;;;;5052425;28;20439;-82
2022/06/12 04:43:16;;;;;;;1.00;1.00;;;;;;;;;;5053588;28;20419;-83
2022/06/12 04:45:43;;;;;;;1.00;1.00;;;24.50;82.90;;;;;;5053710;28;20398;-83
2022/06/12 04:48:21;;;;;;;1.40;1.30;;;24.60;75.70;;;;;;5052582;28;20510;-83
2022/06/12 04:50:47;;;;;;;1.03;1.03;;;;;;;;;;5050864;28;20496;-84
2022/06/12 04:53:13;;;;;;;0.80;0.80;;;;;;;;;;5050715;28;20483;-83
2022/06/12 04:55:39;;;;;;;1.10;1.10;;;;;;;;;;5050932;28;20423;-82
2022/06/12 04:58:06;;;;;;;1.10;1.00;;;24.90;58.20;;;;;;5050927;28;20900;-82
2022/06/12 05:00:35;;;;;;;1.77;1.33;;;24.40;54.00;;;;;;5047695;28;20455;-82
2022/06/12 05:03:01;;;;;;;1.07;0.93;;;;;;;;;;5050773;28;20953;-83
2022/06/12 05:05:27;;;;;;;1.07;1.03;;;;;;;;;;5050625;28;20495;-83
2022/06/12 05:07:54;;;;;;;1.10;1.10;;;;;;;;;;5063763;28;20443;-82
2022/06/12 05:10:20;;;;;;;1.30;1.30;;;;;;;;;;5050073;28;21043;-82
2022/06/12 05:12:46;;;;;;;1.00;0.80;;;;;;;;;;5050544;28;20789;-83
2022/06/12 05:15:12;;;;;;;0.97;0.80;;;24.30;55.30;;;;;;5062835;28;20404;-82
2022/06/12 05:17:39;;;;;;;1.47;0.97;;;24.40;55.40;;;;;;5050656;28;20418;-82
2022/06/12 05:20:07;;;;;;;1.03;1.03;;;24.50;55.90;;;;;;5050796;28;20516;-83
2022/06/12 05:22:33;;;;;;;1.17;1.00;;;;;;;;;;5050809;28;20560;-82
2022/06/12 05:24:59;;;;;;;1.00;1.00;;;;;;;;;;5050811;28;20891;-83
2022/06/12 05:27:25;;;;;;;0.77;0.77;;;;;;;;;;5050488;28;20544;-83
2022/06/12 05:29:51;;;;;;;1.20;1.10;;;;;;;;;;5050672;28;20978;-82
2022/06/12 05:32:19;;;;;;;1.53;1.00;;;24.40;55.90;;;;;;5050040;28;22326;-83
2022/06/12 05:34:45;;;;;;;1.70;1.30;;;;;;;;;;5044753;28;20431;-82
2022/06/12 05:37:11;;;;;;;0.90;0.90;;;23.80;60.00;;;;;;5050685;28;20440;-83
2022/06/12 05:39:38;;;;;;;1.23;1.00;;;24.70;55.80;;;;;;5050333;28;20434;-83
2022/06/12 05:42:04;;;;;;;0.73;0.73;;;;;;;;;;5049840;28;20520;-82
2022/06/12 05:44:30;;;;;;;0.97;0.90;;;;;;;;;;5050245;28;20419;-82
2022/06/12 05:46:59;;;;;;;1.00;1.00;;;24.30;56.90;;;;;;5050492;28;20427;-82
2022/06/12 05:49:25;;;;;;;1.20;1.20;;;;;;;;;;5050636;28;20934;-83
2022/06/12 05:51:51;;;;;;;0.90;0.90;;;;;;;;;;5050497;28;20553;-83
2022/06/12 05:54:18;;;;;;;2.00;0.70;;;;;;;;;;5051188;28;20425;-83
2022/06/12 05:56:44;;;;;;;0.97;0.93;;;;;;;;;;5051096;28;20480;-82
2022/06/12 05:59:10;;;;;;;1.00;0.90;;;;;;;;;;5049241;28;20486;-82
2022/06/12 06:01:39;;;;;;;1.10;1.10;;;24.40;55.90;;;;;;5049630;28;20442;-83
2022/06/12 06:04:05;;;;;;;0.80;0.80;;;25.00;55.90;;;;;;5050600;28;20434;-82
2022/06/12 06:06:35;;;;;;;0.80;0.80;;;24.40;56.50;;;;;;5050454;28;20447;-82
2022/06/12 06:09:03;;;;;;;0.73;0.73;;;25.00;56.30;;;;;;5050525;28;20489;-83
2022/06/12 06:11:29;;;;;;;1.13;1.00;;;;;;;;;;5049945;28;20500;-82
2022/06/12 06:13:55;;;;;;;1.30;1.20;;;;;;;;;;5050522;28;20414;-82
2022/06/12 06:16:21;;;;;;;1.30;1.10;;;24.40;55.50;;;;;;5050167;28;20526;-82
2022/06/12 06:18:47;;;;;;;1.10;1.10;;;;;;;;;;5050016;28;20442;-83
2022/06/12 06:21:15;;;;;;;1.20;0.90;;;;;;;;;;5050137;28;20820;-83
2022/06/12 06:23:41;;;;;;;1.10;1.00;;;;;;;;;;5050715;28;20434;-82
2022/06/12 06:26:08;;;;;;;0.93;0.93;;;24.40;56.10;;;;;;5050068;28;20431;-82
2022/06/12 06:28:36;;;;;;;1.50;1.50;;;24.40;56.30;;;;;;5048855;28;20439;-82
2022/06/12 06:31:02;;;;;;;1.20;1.20;;;24.40;55.60;;;;;;5047947;28;20482;-83
2022/06/12 06:33:28;;;;;;;1.07;1.07;;;;;;;;;;5050085;28;20426;-82
2022/06/12 06:35:54;;;;;;;0.63;0.63;;;;;;;;;;5050063;28;20835;-82
2022/06/12 06:38:20;;;;;;;1.43;0.93;;;;;;;;;;5060744;28;20415;-83
2022/06/12 06:40:47;;;;;;;1.00;1.00;;;;;;;;;;5050576;28;20493;-83
2022/06/12 06:43:13;;;;;;;0.90;0.90;;;;;;;;;;5050856;28;20411;-82
2022/06/12 06:48:25;;;;;;;0.90;0.90;;;24.40;56.20;;;;;;5050124;28;20418;-83
2022/06/12 06:50:51;;;;;;;0.90;0.90;;;;;;;;;;5049863;28;20550;-82
2022/06/12 06:53:18;;;;;;;1.27;1.00;;;;;;;;;;5049962;28;20788;-82
2022/06/12 06:55:44;;;;;;;2.13;1.20;;;24.40;56.30;;;;;;5049517;28;20442;-83
2022/06/12 06:58:14;;;;;;;1.07;1.07;;;24.40;56.40;;;;;;5048782;28;20774;-82
2022/06/12 07:00:41;;;;;;;0.90;0.90;;;24.60;56.50;;;;;;5049269;28;20462;-82
2022/06/12 07:03:07;;;;;;;0.80;0.80;;;;;;;;;;5049785;28;20430;-82
2022/06/12 07:05:34;;;;;;;1.20;1.10;;;24.30;56.10;;;;;;5049809;28;20831;-82
2022/06/12 07:08:00;;;;;;;1.03;1.03;;;;;;;;;;5049729;28;20442;-82
2022/06/12 07:10:28;;;;;;;0.80;0.80;;;24.40;56.40;;;;;;5048927;28;20842;-83
2022/06/12 07:12:55;;;;;;;1.40;1.30;;;;;;;;;;5049680;28;20506;-82
2022/06/12 07:15:22;;;;;;;1.27;1.17;;;24.40;56.10;;;;;;5049461;28;20811;-82
2022/06/12 07:17:48;;;;;;;1.13;1.13;;;;;;;;;;5049925;28;20423;-82
2022/06/12 07:20:17;;;;;;;1.00;1.00;;;24.40;56.60;;;;;;5049418;28;20466;-82
2022/06/12 07:22:43;;;;;;;0.90;0.90;;;;;;;;;;5047886;28;20489;-83
2022/06/12 07:25:11;;;;;;;1.07;1.07;;;24.40;56.70;;;;;;5049551;28;20426;-82
2022/06/12 07:27:38;;;;;;;2.50;1.07;;;;;;;;;;5049917;28;20437;-82
2022/06/12 07:30:06;;;;;;;1.43;1.33;;;24.40;56.70;;;;;;5047934;28;20493;-82
2022/06/12 07:32:33;;;;;;;1.20;1.20;;;;;;;;;;5048705;28;20458;-82
2022/06/12 07:34:59;;;;;;;1.10;1.10;;;;;;;;;;5041209;28;20430;-82
2022/06/12 07:37:25;;;;;;;1.20;1.10;;;24.30;80.50;;;;;;5044290;28;20418;-82
2022/06/12 07:39:51;;;;;;;1.03;1.03;;;;;;;;;;5055838;28;20768;-82
2022/06/12 07:42:18;;;;;;;1.00;1.00;;;;;;;;;;5054803;28;20519;-80
2022/06/12 07:44:44;;;;;;;1.00;1.00;;;24.40;72.40;;;;;;5053297;28;20423;-82
2022/06/12 07:47:10;;;;;;;0.80;0.80;;;;;;;;;;5053882;28;20418;-82
2022/06/12 07:49:36;;;;;;;1.10;0.90;;;;;;;;;;5050259;28;20565;-82
2022/06/12 07:52:05;;;;;;;0.80;0.80;;;24.40;57.20;;;;;;5051978;28;20477;-82
2022/06/12 07:54:31;;;;;;;0.90;0.90;;;23.40;56.30;;;;;;5034623;28;20799;-82
2022/06/12 07:56:58;;;;;;;0.90;0.90;;;;;;;;;;5053256;28;20476;-81
2022/06/12 07:59:24;;;;;;;0.97;0.93;;;;;;;;;;5051156;28;20441;-82
2022/06/12 08:01:52;;;;;;;1.10;0.90;;;;;;;;;;5052861;28;20822;-81
2022/06/12 08:04:18;;;;;;;0.90;0.90;;;;;;;;;;5052046;28;20450;-82
2022/06/12 08:06:44;;;;;;;1.13;1.13;;;;;;;;;;5052362;28;20438;-82
2022/06/12 08:09:11;;;;;;;1.00;1.00;;;;;;;;;;5053970;28;20414;-83
2022/06/12 08:11:39;;;;;;;1.30;1.20;;;24.30;56.90;;;;;;5050669;28;20915;-83
2022/06/12 08:14:05;;;;;;;1.00;1.00;;;24.40;56.90;;;;;;5050674;28;20573;-82
2022/06/12 08:16:32;;;;;;;0.90;0.90;;;;;;;;;;5054166;28;20789;-82
2022/06/12 08:18:59;;;;;;;1.00;1.00;;;;;;;;;;5054006;28;20830;-82
2022/06/12 08:21:25;;;;;;;1.33;1.23;;;;;;;;;;5053821;28;20443;-82
2022/06/12 08:23:57;;;;;;;1.27;1.10;;;24.40;57.40;;;;;;5048781;28;20914;-83
2022/06/12 08:26:29;;;;;;;1.00;1.00;;;24.40;57.60;;;;;;5048204;28;20504;-83
2022/06/12 08:29:00;;;;;;;1.17;0.93;;;24.40;57.20;;;;;;5052680;28;20462;-82
2022/06/12 08:31:39;;;;;;;1.10;1.10;;;24.40;56.20;;;;;;5052456;28;20588;-83
2022/06/12 08:34:15;;;;;;;1.90;1.50;;;24.40;56.60;;;;;;5053875;28;20593;-82
2022/06/12 08:36:42;;;;;;;7.13;1.40;;;24.50;58.10;;;;;;5046720;28;20541;-81
2022/06/12 08:39:08;;;;;;;2.17;2.07;;;24.50;58.70;;;;;;5040957;28;20508;-81
2022/06/12 08:41:42;;;;;;;3.20;1.70;;;24.60;74.30;;;;;;5051351;28;20493;-81
2022/06/12 08:44:29;;;;;;;2.33;2.23;;;24.50;59.70;;;;;;5053813;28;20837;-81
2022/06/12 08:47:02;;;;;;;3.23;2.10;;;24.40;58.60;;;;;;5050319;28;20914;-82
2022/06/12 08:49:32;;;;;;;2.07;1.97;;;24.10;66.70;;;;;;5051061;28;20773;-82
2022/06/12 08:51:58;;;;;;;2.30;2.20;;;;;;;;;;5048246;28;20497;-80
2022/06/12 08:54:31;;;;;;;3.40;2.60;;;24.50;61.80;;;;;;5050214;28;20447;-81
2022/06/12 08:57:07;;;;;;;2.20;2.10;;;24.50;63.80;;;;;;5053509;28;20177;-80
2022/06/12 08:59:49;;;;;;;5.10;2.10;;;24.50;60.10;;;;;;5050077;28;20438;-81
2022/06/12 09:02:29;;;;;;;2.43;2.23;;;24.50;60.10;;;;;;5053159;28;20441;-81
2022/06/12 09:04:55;;;;;;;1.60;1.60;;;;;;;;;;5053080;28;20434;-81
2022/06/12 09:07:23;;;;;;;1.70;1.60;;;24.50;59.60;;;;;;5048397;28;20477;-81
2022/06/12 09:09:56;;;;;;;2.40;1.87;;;24.50;59.60;;;;;;5053880;28;20438;-81
2022/06/12 09:12:47;;;;;;;2.03;1.93;;;24.50;73.20;;;;;;5045390;28;20507;-81
2022/06/12 09:15:35;;;;;;;1.57;1.47;;;24.50;61.00;;;;;;5049073;28;20445;-81
2022/06/12 09:18:22;;;;;;;1.30;1.20;;;24.50;59.50;;;;;;5046964;28;20443;-81
2022/06/12 09:20:59;;;;;;;1.50;1.50;;;26.90;62.80;;;;;;5048429;28;20466;-80
2022/06/12 09:23:51;;;;;;;1.20;1.20;;;24.50;59.40;;;;;;5048056;28;20434;-79
2022/06/12 09:26:33;;;;;;;1.20;1.20;;;24.00;59.20;;;;;;5044474;28;20445;-80
2022/06/12 09:29:23;;;;;;;2.00;1.40;;;24.50;61.00;;;;;;5046880;28;20480;-81
2022/06/12 09:32:06;;;;;;;1.60;1.50;;;24.50;60.90;;;;;;5047992;28;20462;-81
2022/06/12 09:34:54;;;;;;;1.83;1.73;;;24.50;59.40;;;;;;5052516;28;20438;-81
2022/06/12 09:40:46;;;;;;;1.50;1.40;;;24.50;59.40;;;;;;5050358;28;20498;-80
2022/06/12 09:43:49;;;;;;;1.27;1.27;;;24.50;59.30;;;;;;5042555;28;20505;-81
2022/06/12 09:46:56;;;;;;;1.50;1.40;;;24.50;59.10;;;;;;5053220;28;20437;-80
2022/06/12 09:49:48;;;;;;;1.90;1.80;;;24.50;59.10;;;;;;5052389;28;20437;-80
2022/06/12 09:53:10;;;;;;;1.57;1.47;;;24.60;66.40;;;;;;5053715;28;20878;-81
2022/06/12 09:55:42;;;;;;;1.30;1.30;;;24.50;60.80;;;;;;4992183;28;20448;-81
2022/06/12 09:58:08;;;;;;;1.73;1.37;;;;;;;;;;5050984;28;20435;-81
2022/06/12 10:00:52;;;;;;;1.87;1.77;;;24.50;59.10;;;;;;5050527;28;20447;-81
2022/06/12 10:03:18;;;;;;;1.73;1.63;;;;;;;;;;5049136;28;20428;-81
2022/06/12 10:05:51;;;;;;;1.77;1.67;;;24.00;60.30;;;;;;5051843;28;20713;-81
2022/06/12 10:08:26;;;;;;;1.90;1.70;;;24.60;59.60;;;;;;5049008;28;20518;-82
2022/06/12 10:10:53;;;;;;;4.93;2.77;;;;;;;;;;5049327;28;21011;-80
2022/06/12 10:13:31;;;;;;;5.43;2.80;;;25.30;60.70;;;;;;5044813;28;20465;-80
2022/06/12 10:16:10;;;;;;;3.87;2.90;;;25.00;60.40;;;;;;5042859;28;20817;-81
2022/06/12 10:18:44;;;;;;;7.87;3.30;;;24.70;60.10;;;;;;5039058;28;20431;-82
2022/06/12 10:21:15;;;;;;;4.33;3.13;;;24.40;61.10;;;;;;5048367;28;20805;-82
2022/06/12 10:23:41;;;;;;;6.17;3.03;;;;;;;;;;5048547;28;20462;-85
2022/06/12 10:26:23;;;;;;;2.97;2.67;;;24.80;61.70;;;;;;5046050;28;20765;-84
2022/06/12 10:29:05;;;;;;;3.03;2.50;;;24.80;62.10;;;;;;5050107;28;20443;-83
2022/06/12 10:31:34;;;;;;;4.73;2.63;;;24.80;61.60;;;;;;5049538;28;20562;-81
2022/06/12 10:34:21;;;;;;;9.83;3.30;;;24.90;76.00;;;;;;5033061;28;20475;-81
2022/06/12 10:36:47;;;;;;;7.20;2.10;;;;;;;;;;5034222;28;20422;-83
2022/06/12 10:39:17;;;;;;;5.43;3.23;;;24.90;62.10;;;;;;5049212;28;20419;-82
2022/06/12 10:41:46;;;;;;;3.10;2.83;;;24.30;61.50;;;;;;5049661;28;20431;-84
2022/06/12 10:44:27;;;;;;;3.20;2.60;;;24.90;69.80;;;;;;5049926;28;20423;-84
2022/06/12 10:46:53;;;;;;;3.83;2.50;;;;;;;;;;5046976;28;20435;-84
2022/06/12 10:49:22;;;;;;;5.43;2.67;;;25.10;61.40;;;;;;5046180;28;20545;-86
2022/06/12 10:51:48;;;;;;;9.27;3.03;;;;;;;;;;5044784;28;20543;-86
2022/06/12 10:54:21;;;;;;;3.13;2.23;;;25.10;60.70;;;;;;5048507;28;20453;-83
2022/06/12 10:56:47;;;;;;;6.20;2.20;;;;;;;;;;5048156;28;20410;-82
2022/06/12 10:59:13;;;;;;;4.43;2.17;;;;;;;;;;5048348;28;20775;-84
2022/06/12 11:01:49;;;;;;;2.70;2.20;;;25.00;59.80;;;;;;5050801;28;20450;-85
2022/06/12 11:04:53;;;;;;;2.80;1.80;;;25.10;58.70;;;;;;5032959;28;20521;-86
2022/06/12 11:07:34;;;;;;;5.30;2.50;;;25.10;58.70;;;;;;5047788;28;20499;-87
2022/06/12 11:10:13;;;;;;;5.07;2.20;;;25.00;61.30;;;;;;5046945;28;20464;-85
2022/06/12 11:12:57;;;;;;;4.30;2.00;;;25.20;58.70;;;;;;5049317;28;20545;-85
2022/06/12 11:15:29;;;;;;;5.20;2.13;;;25.10;86.90;;;;;;5043372;28;20438;-84
2022/06/12 11:18:24;;;;;;;9.50;2.43;;;25.30;62.40;;;;;;5051387;28;20967;-84
2022/06/12 11:21:04;;;;;;;8.43;2.00;;;25.20;58.40;;;;;;5050203;28;20439;-85
2022/06/12 11:23:43;;;;;;;8.20;2.60;;;25.10;58.40;;;;;;5051188;28;20430;-84
2022/06/12 11:26:23;;;;;;;3.27;2.43;;;25.10;58.30;;;;;;5052356;28;20896;-83
2022/06/12 11:29:11;;;;;;;2.80;2.50;;;25.10;58.30;;;;;;5037863;28;20545;-83
2022/06/12 11:31:49;;;;;;;2.30;2.10;;;24.90;69.80;;;;;;5048535;28;20458;-84
2022/06/12 11:34:26;;;;;;;5.00;2.33;;;25.10;58.30;;;;;;5050917;28;20441;-84
2022/06/12 11:37:30;;;;;;;5.47;1.83;;;25.00;59.10;;;;;;5052035;28;20407;-85
2022/06/12 11:40:08;;;;;;;1.80;1.70;;;25.00;59.20;;;;;;5015244;28;20918;-85
2022/06/12 11:43:08;;;;;;;2.17;2.03;;;25.00;58.20;;;;;;5052075;28;20425;-84
2022/06/12 11:46:00;;;;;;;2.77;1.57;;;24.90;81.70;;;;;;5051212;28;20488;-84
2022/06/12 11:48:40;;;;;;;1.70;1.60;;;25.00;58.30;;;;;;5048003;28;20553;-84
2022/06/12 11:51:18;;;;;;;1.63;1.53;;;25.10;58.30;;;;;;5051249;28;20466;-84
2022/06/12 11:53:58;;;;;;;2.50;2.37;;;23.70;57.70;;;;;;5051224;28;20430;-84
2022/06/12 11:56:57;;;;;;;1.77;1.67;;;25.00;58.20;;;;;;5055183;28;20422;-84
2022/06/12 11:59:23;;;;;;;2.80;1.60;;;;;;;;;;5051504;28;20478;-84
2022/06/12 12:02:02;;;;;;;1.60;1.50;;;24.70;59.30;;;;;;5058738;28;20451;-84
2022/06/12 12:04:59;;;;;;;3.80;1.50;;;25.00;58.20;;;;;;5051198;28;20796;-84
2022/06/12 12:07:27;;;;;;;1.50;1.40;;;;;;;;;;5052070;28;20449;-84
2022/06/12 12:09:54;;;;;;;3.13;1.60;;;;;;;;;;5051865;28;20542;-85
2022/06/12 12:12:25;;;;;;;1.93;1.83;;;24.90;59.00;;;;;;5052536;28;20961;-84
2022/06/12 12:14:53;;;;;;;2.30;2.13;;;24.80;67.60;;;;;;5048511;28;20477;-84
2022/06/12 12:17:19;;;;;;;2.37;2.17;;;;;;;;;;5052686;28;20423;-83
2022/06/12 12:20:03;;;;;;;1.93;1.80;;;25.00;58.30;;;;;;5053220;28;20468;-80
2022/06/12 12:22:29;;;;;;;3.00;1.67;;;;;;;;;;5051958;28;20433;-84
2022/06/12 12:25:01;;;;;;;4.17;2.63;;;25.10;59.10;;;;;;5052219;28;20410;-82
2022/06/12 12:27:37;;;;;;;4.70;2.53;;;25.70;62.80;;;;;;5052353;28;20183;-83
2022/06/12 12:30:06;;;;;;;3.23;2.23;;;25.20;61.50;;;;;;5051035;28;20422;-84
2022/06/12 12:32:34;;;;;;;2.40;1.90;;;26.30;60.00;;;;;;5051463;28;20562;-84
2022/06/12 12:35:01;;;;;;;2.90;1.73;;;25.10;59.00;;;;;;5053560;28;20438;-81
2022/06/12 12:43:18;;;;;;;3.40;1.90;;;;;;;;;;5049967;28;20426;-82
2022/06/12 12:45:45;;;;;;;2.97;1.80;;;;;;;;;;5030042;28;20411;-82
2022/06/12 12:48:13;;;;;;;1.60;1.50;;;25.10;59.00;;;;;;5046261;28;20436;-82
2022/06/12 12:50:54;;;;;;;3.30;3.10;;;25.10;58.10;;;;;;5052289;28;20435;-83
2022/06/12 12:53:26;;;;;;;1.80;1.53;;;24.70;58.60;;;;;;5052456;28;20406;-83
2022/06/12 12:56:07;;;;;;;1.87;1.77;;;25.10;58.00;;;;;;5050037;28;20415;-82
2022/06/12 12:58:40;;;;;;;4.20;2.17;;;25.10;58.10;;;;;;5050497;28;20468;-82
2022/06/12 13:01:27;;;;;;;1.53;1.43;;;25.00;57.90;;;;;;5050120;28;20445;-82
2022/06/12 13:04:10;;;;;;;1.70;1.60;;;25.00;58.00;;;;;;5050339;28;20401;-82
2022/06/12 13:06:48;;;;;;;2.50;1.43;;;25.00;58.00;;;;;;5067365;28;20925;-82
2022/06/12 13:09:26;;;;;;;3.77;2.03;;;25.00;57.90;;;;;;5060909;28;20442;-82
2022/06/12 13:12:04;;;;;;;2.73;1.67;;;25.00;58.30;;;;;;5051969;28;20459;-82
2022/06/12 13:15:03;;;;;;;1.77;1.67;;;24.90;57.70;;;;;;5052315;28;20506;-82
2022/06/12 13:18:08;;;;;;;1.40;1.30;;;25.10;57.80;;;;;;5052392;28;20402;-82
2022/06/12 13:21:12;;;;;;;2.43;1.93;;;25.80;58.30;;;;;;5051869;28;20456;-82
2022/06/12 13:24:13;;;;;;;2.63;1.80;;;25.70;58.20;;;;;;5052396;28;20433;-82
2022/06/12 13:26:42;;;;;;;2.13;1.13;;;25.00;58.30;;;;;;5052782;28;20517;-82
2022/06/12 13:29:18;;;;;;;1.70;1.70;;;24.80;57.90;;;;;;5052517;28;20425;-82
2022/06/12 13:32:05;;;;;;;1.67;1.43;;;25.00;57.60;;;;;;5052015;28;20535;-83
2022/06/12 13:34:31;;;;;;;4.23;1.50;;;;;;;;;;5052538;28;20394;-82
2022/06/12 13:36:59;;;;;;;2.90;1.90;;;25.00;58.50;;;;;;5052083;28;20403;-82
2022/06/12 13:39:31;;;;;;;1.60;1.50;;;25.00;57.60;;;;;;5052232;28;20414;-83
2022/06/12 13:42:04;;;;;;;1.80;1.70;;;25.10;57.60;;;;;;5052526;28;20810;-82
2022/06/12 13:44:32;;;;;;;1.73;1.50;;;25.00;57.50;;;;;;5052332;28;20439;-83
2022/06/12 13:47:19;;;;;;;2.50;1.20;;;25.10;58.40;;;;;;5052966;28;20472;-82
2022/06/12 13:49:45;;;;;;;1.80;1.70;;;;;;;;;;5052519;28;20387;-83
2022/06/12 13:52:16;;;;;;;3.20;2.23;;;25.10;58.20;;;;;;5051498;28;20486;-83
2022/06/12 13:54:43;;;;;;;1.73;1.63;;;25.10;58.00;;;;;;5052412;28;20534;-83
2022/06/12 13:57:37;;;;;;;1.53;1.43;;;25.00;57.30;;;;;;5052615;28;20399;-83
2022/06/12 14:00:31;;;;;;;1.40;1.30;;;25.60;58.40;;;;;;5032278;28;20426;-82
2022/06/12 14:02:58;;;;;;;1.40;1.40;;;25.00;57.90;;;;;;5052403;28;20570;-83
2022/06/12 14:05:28;;;;;;;1.40;1.30;;;24.70;58.00;;;;;;5052715;28;20929;-83
2022/06/12 14:07:55;;;;;;;2.70;1.77;;;25.40;58.30;;;;;;5052665;28;20629;-83
2022/06/12 14:10:36;;;;;;;1.53;1.43;;;25.10;57.30;;;;;;5052137;28;20466;-83
2022/06/12 14:13:08;;;;;;;4.83;1.70;;;25.10;58.00;;;;;;5052225;28;20458;-83
2022/06/12 14:15:36;;;;;;;2.50;1.47;;;25.10;57.90;;;;;;5052719;28;20469;-83